Celtic Sea — D5HH9 — position and weather

sailwx.info

Track history (hours):
 
Tides and Currents Weather Stations Pressure Air Temp Water Temp Dewpoint Dewpoint Depression Visibility Wind Speed Wind Dir Waves Ship Positions

Celtic Sea

Last reported at 2017-Aug-28 04:58 UTC. Time now 2017-Sep-24 06:53 UTC.
Position N 35°23' E 017°46'.
Warning: this ship's position is 27 days out of date.

Length 239 m; draft 11.6 m.

Type: Tanker. MMSI: 636016693.

Date/timePositionNaut miles runAvg speedWind from/ knotsBaromVisibWave heightAir tempDewpointWater temp
2017-Aug-28 04:58N 35°23' E 017°46'613.1
2017-Aug-28 04:30N 35°25' E 017°39'5213.3
2017-Aug-28 00:32N 35°39' E 016°36'113.4
2017-Aug-28 00:28N 35°39' E 016°35'612.9
2017-Aug-28 00:00N 35°40' E 016°28'612.9
2017-Aug-27 23:30N 35°42' E 016°20'713.3
2017-Aug-27 23:00N 35°44' E 016°13'713.3
2017-Aug-27 22:30N 35°46' E 016°04'813.2
2017-Aug-27 21:52N 35°48' E 015°55'613.3
2017-Aug-27 21:26N 35°49' E 015°48'713.2
2017-Aug-27 20:54N 35°51' E 015°39'513.4
2017-Aug-27 20:30N 35°52' E 015°33'713.4
2017-Aug-27 20:00N 35°54' E 015°25'713.2
2017-Aug-27 19:30N 35°56' E 015°17'713.5
2017-Aug-27 19:00N 35°58' E 015°09'713.8
2017-Aug-27 18:30N 36°00' E 015°01'713.6
2017-Aug-27 18:00N 36°03' E 014°53'713.5
2017-Aug-27 17:30N 36°05' E 014°46'713.1
2017-Aug-27 17:00N 36°08' E 014°38'511.0
2017-Aug-27 16:30N 36°11' E 014°32'713.2
2017-Aug-27 16:00N 36°13' E 014°25'713.3
2017-Aug-27 15:30N 36°15' E 014°17'713.3
2017-Aug-27 15:00N 36°18' E 014°10'713.3
2017-Aug-27 14:30N 36°21' E 014°02'713.5
2017-Aug-27 14:00N 36°23' E 013°54'713.5
2017-Aug-27 13:30N 36°26' E 013°46'713.4
2017-Aug-27 13:00N 36°29' E 013°39'713.4
2017-Aug-27 12:30N 36°31' E 013°31'713.3
2017-Aug-27 12:00N 36°34' E 013°24'713.3
2017-Aug-27 11:30N 36°37' E 013°16'613.0
2017-Aug-27 11:00N 36°39' E 013°09'612.9
2017-Aug-27 10:30N 36°42' E 013°01'612.9
2017-Aug-27 10:00N 36°44' E 012°54'713.0
2017-Aug-27 09:30N 36°47' E 012°46'612.9
2017-Aug-27 09:00N 36°49' E 012°39'612.8
2017-Aug-27 08:30N 36°52' E 012°32'612.7
2017-Aug-27 08:00N 36°54' E 012°24'612.8
2017-Aug-27 07:30N 36°56' E 012°17'612.8
2017-Aug-27 07:00N 36°59' E 012°09'612.6
2017-Aug-27 06:30N 37°02' E 012°02'612.6
2017-Aug-27 06:00N 37°05' E 011°55'713.0
2017-Aug-27 05:30N 37°07' E 011°48'713.3
2017-Aug-27 05:00N 37°10' E 011°40'713.0
2017-Aug-27 04:30N 37°13' E 011°33'612.7
2017-Aug-27 04:00N 37°15' E 011°25'713.1
2017-Aug-27 03:30N 37°18' E 011°18'713.3
2017-Aug-27 03:00N 37°22' E 011°11'612.6
2017-Aug-27 02:30N 37°24' E 011°04'713.5
2017-Aug-27 02:00N 37°25' E 010°55'713.3
2017-Aug-27 01:30N 37°27' E 010°47'713.3
2017-Aug-27 01:00N 37°29' E 010°39'1313.4
2017-Aug-27 00:01N 37°32' E 010°23'0 9.9
2017-Aug-26 23:59N 37°32' E 010°23'613.0
2017-Aug-26 23:30N 37°34' E 010°15'713.1
2017-Aug-26 23:00N 37°34' E 010°07'613.1
2017-Aug-26 22:30N 37°34' E 009°59'713.1
2017-Aug-26 22:00N 37°35' E 009°50'813.0
2017-Aug-26 21:23N 37°35' E 009°40'813.0
2017-Aug-26 20:44N 37°36' E 009°30'413.0
2017-Aug-26 20:27N 37°37' E 009°25'613.0
2017-Aug-26 20:00N 37°38' E 009°18'713.1
2017-Aug-26 19:29N 37°40' E 009°10'712.8
2017-Aug-26 18:57N 37°41' E 009°01'612.6
2017-Aug-26 18:30N 37°42' E 008°54'612.6
2017-Aug-26 18:00N 37°42' E 008°46'612.5
2017-Aug-26 17:30N 37°41' E 008°38'612.6
2017-Aug-26 17:00N 37°41' E 008°30'612.6
2017-Aug-26 16:29N 37°41' E 008°22'612.6
2017-Aug-26 16:00N 37°40' E 008°14'712.8
2017-Aug-26 15:25N 37°40' E 008°05'513.0
2017-Aug-26 15:00N 37°40' E 007°58'1313.0
2017-Aug-26 14:00N 37°39' E 007°42'612.9
2017-Aug-26 13:30N 37°39' E 007°33'612.9
2017-Aug-26 13:00N 37°39' E 007°25'713.0
2017-Aug-26 12:30N 37°39' E 007°17'713.1
2017-Aug-26 11:58N 37°38' E 007°08'613.5
2017-Aug-26 11:30N 37°37' E 007°00'713.6
2017-Aug-26 11:00N 37°37' E 006°52'713.1
2017-Aug-26 10:29N 37°37' E 006°43'712.9
2017-Aug-26 09:55N 37°36' E 006°34'513.2
2017-Aug-26 09:30N 37°36' E 006°27'713.2
2017-Aug-26 09:00N 37°36' E 006°19'613.1
2017-Aug-26 08:30N 37°36' E 006°10'613.1
2017-Aug-26 08:00N 37°35' E 006°02'612.9
2017-Aug-26 07:30N 37°35' E 005°54'713.0
2017-Aug-26 07:00N 37°35' E 005°46'713.1
2017-Aug-26 06:30N 37°34' E 005°38'713.0
2017-Aug-26 05:58N 37°34' E 005°29'612.9
2017-Aug-26 05:30N 37°34' E 005°21'713.0
2017-Aug-26 05:00N 37°33' E 005°13'713.0
2017-Aug-26 04:30N 37°33' E 005°05'713.3
2017-Aug-26 04:00N 37°31' E 004°57'713.3
2017-Aug-26 03:30N 37°29' E 004°49'713.0
2017-Aug-26 03:00N 37°28' E 004°41'713.1
2017-Aug-26 02:30N 37°26' E 004°33'613.1
2017-Aug-26 02:00N 37°25' E 004°25'612.9
2017-Aug-26 01:30N 37°24' E 004°17'713.1
2017-Aug-26 01:00N 37°23' E 004°09'713.2
2017-Aug-26 00:30N 37°21' E 004°01'713.2
2017-Aug-26 00:00N 37°19' E 003°53'713.2
2017-Aug-25 23:30N 37°18' E 003°45'713.6
2017-Aug-25 23:00N 37°17' E 003°36'713.4
2017-Aug-25 22:30N 37°16' E 003°28'713.2
2017-Aug-25 22:00N 37°15' E 003°20'713.1
2017-Aug-25 21:30N 37°14' E 003°11'713.0
2017-Aug-25 21:00N 37°13' E 003°03'613.0
2017-Aug-25 20:30N 37°12' E 002°55'712.9
2017-Aug-25 20:00N 37°10' E 002°47'612.9
2017-Aug-25 19:30N 37°09' E 002°40'712.8
2017-Aug-25 18:57N 37°08' E 002°31'612.8
2017-Aug-25 18:30N 37°07' E 002°24'612.7
2017-Aug-25 18:00N 37°05' E 002°16'712.7
2017-Aug-25 17:29N 37°03' E 002°09'812.7
2017-Aug-25 16:50N 36°60' E 001°59'412.5
2017-Aug-25 16:30N 36°59' E 001°54'612.3
2017-Aug-25 16:00N 36°57' E 001°46'612.2
2017-Aug-25 15:30N 36°55' E 001°39'612.1
2017-Aug-25 15:00N 36°53' E 001°32'612.0
2017-Aug-25 14:30N 36°51' E 001°25'1512.7
2017-Aug-25 13:22N 36°46' E 001°08'513.2
2017-Aug-25 13:00N 36°45' E 001°03'713.2
2017-Aug-25 12:30N 36°42' E 000°55'713.2
2017-Aug-25 12:00N 36°40' E 000°47'713.5
2017-Aug-25 11:30N 36°37' E 000°39'813.5
2017-Aug-25 10:56N 36°35' E 000°30'3913.3
2017-Aug-25 07:59N 36°06' W 000°03'713.6
2017-Aug-25 07:30N 36°01' W 000°07'612.2
2017-Aug-25 06:58N 35°55' W 000°12'6 9.9
2017-Aug-25 06:24N 35°51' W 000°16'1 0.0
2017-Aug-24 06:10N 35°51' W 000°18'0 1.6
2017-Aug-24 06:00N 35°51' W 000°17'1 2.5
2017-Aug-24 05:29N 35°51' W 000°16'4 0.9
2017-Aug-24 01:23N 35°54' W 000°14'10 2.6
2017-Aug-23 21:28N 36°04' W 000°13'3 3.0
2017-Aug-23 20:37N 36°07' W 000°12'0 0.5
2017-Aug-23 20:10N 36°07' W 000°12'0 0.5
2017-Aug-23 19:57N 36°07' W 000°12'0 0.6
2017-Aug-23 19:30N 36°07' W 000°12'0 0.6
2017-Aug-23 19:00N 36°07' W 000°11'0 0.6
2017-Aug-23 18:30N 36°07' W 000°11'0 0.5
2017-Aug-23 18:00N 36°07' W 000°10'0 0.6
2017-Aug-23 17:30N 36°07' W 000°10'0 0.6
2017-Aug-23 17:00N 36°07' W 000°10'0 0.5
2017-Aug-23 16:29N 36°07' W 000°09'0 0.5
2017-Aug-23 16:00N 36°07' W 000°09'0 0.5
2017-Aug-23 15:30N 36°07' W 000°09'0 0.5
2017-Aug-23 15:00N 36°07' W 000°09'0 0.2
2017-Aug-23 14:00N 36°07' W 000°08'0 0.2
2017-Aug-23 13:30N 36°07' W 000°09'0 0.4
2017-Aug-23 12:39N 36°07' W 000°09'0 0.5
2017-Aug-23 12:27N 36°07' W 000°09'0 0.6
2017-Aug-23 11:57N 36°07' W 000°09'0 0.6
2017-Aug-23 11:27N 36°07' W 000°10'0 0.5
2017-Aug-23 11:00N 36°07' W 000°10'1 1.4
2017-Aug-23 10:25N 36°06' W 000°09'2 4.6
2017-Aug-23 09:59N 36°06' W 000°07'5 4.5
2017-Aug-23 08:48N 36°08' W 000°01'0 0.5
2017-Aug-23 08:30N 36°08' W 000°01'0 0.7
2017-Aug-23 07:56N 36°07' W 000°01'0 0.8
2017-Aug-23 07:30N 36°07' W 000°02'0 0.9
2017-Aug-23 07:00N 36°07' W 000°02'3 0.9
2017-Aug-23 03:42N 36°05' W 000°05'0 0.8
2017-Aug-23 03:21N 36°05' W 000°05'0 0.8
2017-Aug-23 03:00N 36°05' W 000°06'0 0.7
2017-Aug-23 02:30N 36°05' W 000°06'0 0.7
2017-Aug-23 02:00N 36°04' W 000°06'0 0.6
2017-Aug-23 01:30N 36°04' W 000°06'0 0.4
2017-Aug-23 01:00N 36°04' W 000°06'0 0.1
2017-Aug-23 00:30N 36°04' W 000°06'0 0.2
2017-Aug-22 23:58N 36°04' W 000°06'0 0.2
2017-Aug-22 23:26N 36°04' W 000°06'0 0.2
2017-Aug-22 23:00N 36°04' W 000°06'0 0.4
2017-Aug-22 22:30N 36°04' W 000°06'0 0.9
2017-Aug-22 22:00N 36°05' W 000°07'2 4.4
2017-Aug-22 21:30N 36°05' W 000°09'611.3
2017-Aug-22 21:00N 36°07' W 000°16'3 5.2
2017-Aug-22 20:30N 36°07' W 000°19'0 0.6
2017-Aug-22 19:57N 36°07' W 000°18'0 0.6
2017-Aug-22 19:29N 36°07' W 000°18'0 0.7
2017-Aug-22 18:59N 36°07' W 000°18'0 0.9
2017-Aug-22 18:28N 36°07' W 000°17'1 1.2
2017-Aug-22 18:00N 36°07' W 000°16'1 1.2
2017-Aug-22 17:30N 36°07' W 000°16'1 1.1
2017-Aug-22 17:00N 36°07' W 000°15'1 1.1
2017-Aug-22 16:30N 36°07' W 000°14'1 1.2
2017-Aug-22 16:00N 36°06' W 000°14'0 0.8
2017-Aug-22 15:28N 36°06' W 000°13'0 0.8
2017-Aug-22 15:00N 36°06' W 000°13'0 0.8
2017-Aug-22 14:30N 36°06' W 000°12'0 0.6
2017-Aug-22 13:56N 36°06' W 000°12'0 0.5
2017-Aug-22 13:29N 36°06' W 000°11'0 0.6
2017-Aug-22 12:44N 36°06' W 000°11'0 0.7
2017-Aug-22 12:28N 36°06' W 000°11'0 0.6
2017-Aug-22 11:48N 36°06' W 000°10'0 0.4
2017-Aug-22 11:28N 36°06' W 000°10'0 0.2
2017-Aug-22 11:00N 36°06' W 000°10'1 0.5
2017-Aug-22 09:07N 36°05' W 000°09'3 1.2
2017-Aug-22 06:47N 36°08' W 000°07'0 0.0
2017-Aug-22 06:21N 36°08' W 000°07'0 0.1
2017-Aug-22 05:57N 36°08' W 000°07'0 0.0
2017-Aug-22 04:53N 36°08' W 000°07'0 0.2
2017-Aug-22 02:56N 36°07' W 000°07'1 0.6
2017-Aug-22 01:42N 36°07' W 000°06'0 1.4
2017-Aug-22 01:28N 36°07' W 000°06'1 2.9
2017-Aug-22 01:00N 36°05' W 000°06'3 5.6
2017-Aug-22 00:27N 36°02' W 000°07'4 6.4
2017-Aug-21 23:54N 35°59' W 000°08'1 1.2
2017-Aug-21 23:16N 35°60' W 000°08'4 1.5
2017-Aug-21 20:27N 36°03' W 000°05'1 1.8
2017-Aug-21 19:54N 36°04' W 000°05'1 1.9
2017-Aug-21 19:30N 36°05' W 000°05'2 3.6
2017-Aug-21 18:58N 36°05' W 000°07'3 5.1
2017-Aug-21 18:28N 36°05' W 000°10'3 5.3
2017-Aug-21 17:59N 36°05' W 000°13'3 5.8
2017-Aug-21 17:30N 36°05' W 000°17'3 5.4
2017-Aug-21 17:00N 36°05' W 000°20'1 2.1
2017-Aug-21 16:26N 36°04' W 000°19'1 1.7
2017-Aug-21 15:55N 36°04' W 000°18'6 1.2
2017-Aug-21 10:57N 36°04' W 000°11'0 0.6
2017-Aug-21 10:28N 36°04' W 000°10'1 0.6
2017-Aug-21 09:33N 36°04' W 000°09'0 0.9
2017-Aug-21 09:16N 36°04' W 000°09'4 0.9
2017-Aug-21 04:36N 36°06' W 000°05'1 3.4
2017-Aug-21 04:20N 36°06' W 000°06'4 0.9
2017-Aug-21 00:05N 36°05' W 000°10'0 1.4
2017-Aug-20 23:55N 36°05' W 000°10'2 0.8
2017-Aug-20 20:59N 36°06' W 000°13'1 1.6
2017-Aug-20 20:30N 36°06' W 000°14'1 1.8
2017-Aug-20 19:59N 36°05' W 000°15'24011.1
2017-Aug-19 22:17N 35°59' W 005°12'412.9
2017-Aug-19 22:01N 35°59' W 005°16'612.8
2017-Aug-19 21:30N 35°58' W 005°24'1211.8
2017-Aug-19 20:29N 35°54' W 005°38'5 9.4
2017-Aug-19 20:00N 35°54' W 005°44'6 9.4
2017-Aug-19 19:21N 35°53' W 005°51'510.2
2017-Aug-19 18:52N 35°53' W 005°57'7211.2
2017-Aug-19 12:25N 35°55' W 007°26'1311.2
2017-Aug-19 11:15N 35°55' W 007°42'411.5
2017-Aug-19 10:56N 35°55' W 007°47'511.7
2017-Aug-19 10:30N 35°55' W 007°53'2311.9
2017-Aug-19 08:36N 35°56' W 008°21'112.0
2017-Aug-19 08:29N 35°56' W 008°23'612.0
2017-Aug-19 08:00N 35°56' W 008°30'611.8
2017-Aug-19 07:30N 35°56' W 008°37'611.8
2017-Aug-19 06:59N 35°57' W 008°44'1311.6
2017-Aug-19 05:53N 35°57' W 009°00'4111.3
2017-Aug-19 02:12N 35°59' W 009°51'511.3
2017-Aug-19 01:44N 35°59' W 009°58'1111.3
2017-Aug-19 00:47N 35°59' W 010°11'711.6
2017-Aug-19 00:13N 35°59' W 010°19'211.4
2017-Aug-19 00:00N 35°59' W 010°22'611.1
2017-Aug-18 23:30N 35°60' W 010°29'510.8
2017-Aug-18 23:00N 35°60' W 010°36'1811.2
2017-Aug-18 21:26N 36°00' W 010°58'611.2
2017-Aug-18 20:55N 36°01' W 011°05'611.2
2017-Aug-18 20:23N 36°01' W 011°12'611.4
2017-Aug-18 19:50N 36°01' W 011°20'511.6
2017-Aug-18 19:27N 36°02' W 011°25'511.7
2017-Aug-18 19:00N 36°02' W 011°32'1511.7
2017-Aug-18 17:43N 36°02' W 011°51'411.7
2017-Aug-18 17:22N 36°02' W 011°55'411.6
2017-Aug-18 17:00N 36°02' W 012°01'611.4
2017-Aug-18 16:27N 36°03' W 012°08'911.3
2017-Aug-18 15:39N 36°03' W 012°20'211.6
2017-Aug-18 15:27N 36°03' W 012°22'611.8
2017-Aug-18 14:58N 36°03' W 012°30'712.0
2017-Aug-18 14:25N 36°03' W 012°38'1112.0
2017-Aug-18 13:29N 36°04' W 012°52'2012.0
2017-Aug-18 11:48N 36°05' W 013°17'2910.8
2017-Aug-18 09:07N 36°05' W 013°52'1 6.1
2017-Aug-18 09:00N 36°05' W 013°53'3 5.6
2017-Aug-18 08:30N 36°06' W 013°57'  
Track history (hours):
 
Tides and Currents Weather Stations Pressure Air Temp Water Temp Dewpoint Dewpoint Depression Visibility Wind Speed Wind Dir Waves Ship Positions

Celtic Sea

Last reported at 2017-Aug-28 04:58 UTC. Time now 2017-Sep-24 06:53 UTC.
Position N 35°23' E 017°46'.
Warning: this ship's position is 27 days out of date.

Length 239 m; draft 11.6 m.

Type: Tanker. MMSI: 636016693.

Date/timePositionNaut miles runAvg speedWind from/ knotsBaromVisibWave heightAir tempDewpointWater temp
2017-Aug-28 04:58N 35°23' E 017°46'613.1
2017-Aug-28 04:30N 35°25' E 017°39'5213.3
2017-Aug-28 00:32N 35°39' E 016°36'113.4
2017-Aug-28 00:28N 35°39' E 016°35'612.9
2017-Aug-28 00:00N 35°40' E 016°28'612.9
2017-Aug-27 23:30N 35°42' E 016°20'713.3
2017-Aug-27 23:00N 35°44' E 016°13'713.3
2017-Aug-27 22:30N 35°46' E 016°04'813.2
2017-Aug-27 21:52N 35°48' E 015°55'613.3
2017-Aug-27 21:26N 35°49' E 015°48'713.2
2017-Aug-27 20:54N 35°51' E 015°39'513.4
2017-Aug-27 20:30N 35°52' E 015°33'713.4
2017-Aug-27 20:00N 35°54' E 015°25'713.2
2017-Aug-27 19:30N 35°56' E 015°17'713.5
2017-Aug-27 19:00N 35°58' E 015°09'713.8
2017-Aug-27 18:30N 36°00' E 015°01'713.6
2017-Aug-27 18:00N 36°03' E 014°53'713.5
2017-Aug-27 17:30N 36°05' E 014°46'713.1
2017-Aug-27 17:00N 36°08' E 014°38'511.0
2017-Aug-27 16:30N 36°11' E 014°32'713.2
2017-Aug-27 16:00N 36°13' E 014°25'713.3
2017-Aug-27 15:30N 36°15' E 014°17'713.3
2017-Aug-27 15:00N 36°18' E 014°10'713.3
2017-Aug-27 14:30N 36°21' E 014°02'713.5
2017-Aug-27 14:00N 36°23' E 013°54'713.5
2017-Aug-27 13:30N 36°26' E 013°46'713.4
2017-Aug-27 13:00N 36°29' E 013°39'713.4
2017-Aug-27 12:30N 36°31' E 013°31'713.3
2017-Aug-27 12:00N 36°34' E 013°24'713.3
2017-Aug-27 11:30N 36°37' E 013°16'613.0
2017-Aug-27 11:00N 36°39' E 013°09'612.9
2017-Aug-27 10:30N 36°42' E 013°01'612.9
2017-Aug-27 10:00N 36°44' E 012°54'713.0
2017-Aug-27 09:30N 36°47' E 012°46'612.9
2017-Aug-27 09:00N 36°49' E 012°39'612.8
2017-Aug-27 08:30N 36°52' E 012°32'612.7
2017-Aug-27 08:00N 36°54' E 012°24'612.8
2017-Aug-27 07:30N 36°56' E 012°17'612.8
2017-Aug-27 07:00N 36°59' E 012°09'612.6
2017-Aug-27 06:30N 37°02' E 012°02'612.6
2017-Aug-27 06:00N 37°05' E 011°55'713.0
2017-Aug-27 05:30N 37°07' E 011°48'713.3
2017-Aug-27 05:00N 37°10' E 011°40'713.0
2017-Aug-27 04:30N 37°13' E 011°33'612.7
2017-Aug-27 04:00N 37°15' E 011°25'713.1
2017-Aug-27 03:30N 37°18' E 011°18'713.3
2017-Aug-27 03:00N 37°22' E 011°11'612.6
2017-Aug-27 02:30N 37°24' E 011°04'713.5
2017-Aug-27 02:00N 37°25' E 010°55'713.3
2017-Aug-27 01:30N 37°27' E 010°47'713.3
2017-Aug-27 01:00N 37°29' E 010°39'1313.4
2017-Aug-27 00:01N 37°32' E 010°23'0 9.9
2017-Aug-26 23:59N 37°32' E 010°23'613.0
2017-Aug-26 23:30N 37°34' E 010°15'713.1
2017-Aug-26 23:00N 37°34' E 010°07'613.1
2017-Aug-26 22:30N 37°34' E 009°59'713.1
2017-Aug-26 22:00N 37°35' E 009°50'813.0
2017-Aug-26 21:23N 37°35' E 009°40'813.0
2017-Aug-26 20:44N 37°36' E 009°30'413.0
2017-Aug-26 20:27N 37°37' E 009°25'613.0
2017-Aug-26 20:00N 37°38' E 009°18'713.1
2017-Aug-26 19:29N 37°40' E 009°10'712.8
2017-Aug-26 18:57N 37°41' E 009°01'612.6
2017-Aug-26 18:30N 37°42' E 008°54'612.6
2017-Aug-26 18:00N 37°42' E 008°46'612.5
2017-Aug-26 17:30N 37°41' E 008°38'612.6
2017-Aug-26 17:00N 37°41' E 008°30'612.6
2017-Aug-26 16:29N 37°41' E 008°22'612.6
2017-Aug-26 16:00N 37°40' E 008°14'712.8
2017-Aug-26 15:25N 37°40' E 008°05'513.0
2017-Aug-26 15:00N 37°40' E 007°58'1313.0
2017-Aug-26 14:00N 37°39' E 007°42'612.9
2017-Aug-26 13:30N 37°39' E 007°33'612.9
2017-Aug-26 13:00N 37°39' E 007°25'713.0
2017-Aug-26 12:30N 37°39' E 007°17'713.1
2017-Aug-26 11:58N 37°38' E 007°08'613.5
2017-Aug-26 11:30N 37°37' E 007°00'713.6
2017-Aug-26 11:00N 37°37' E 006°52'713.1
2017-Aug-26 10:29N 37°37' E 006°43'712.9
2017-Aug-26 09:55N 37°36' E 006°34'513.2
2017-Aug-26 09:30N 37°36' E 006°27'713.2
2017-Aug-26 09:00N 37°36' E 006°19'613.1
2017-Aug-26 08:30N 37°36' E 006°10'613.1
2017-Aug-26 08:00N 37°35' E 006°02'612.9
2017-Aug-26 07:30N 37°35' E 005°54'713.0
2017-Aug-26 07:00N 37°35' E 005°46'713.1
2017-Aug-26 06:30N 37°34' E 005°38'713.0
2017-Aug-26 05:58N 37°34' E 005°29'612.9
2017-Aug-26 05:30N 37°34' E 005°21'713.0
2017-Aug-26 05:00N 37°33' E 005°13'713.0
2017-Aug-26 04:30N 37°33' E 005°05'713.3
2017-Aug-26 04:00N 37°31' E 004°57'713.3
2017-Aug-26 03:30N 37°29' E 004°49'713.0
2017-Aug-26 03:00N 37°28' E 004°41'713.1
2017-Aug-26 02:30N 37°26' E 004°33'613.1
2017-Aug-26 02:00N 37°25' E 004°25'612.9
2017-Aug-26 01:30N 37°24' E 004°17'713.1
2017-Aug-26 01:00N 37°23' E 004°09'713.2
2017-Aug-26 00:30N 37°21' E 004°01'713.2
2017-Aug-26 00:00N 37°19' E 003°53'713.2
2017-Aug-25 23:30N 37°18' E 003°45'713.6
2017-Aug-25 23:00N 37°17' E 003°36'713.4
2017-Aug-25 22:30N 37°16' E 003°28'713.2
2017-Aug-25 22:00N 37°15' E 003°20'713.1
2017-Aug-25 21:30N 37°14' E 003°11'713.0
2017-Aug-25 21:00N 37°13' E 003°03'613.0
2017-Aug-25 20:30N 37°12' E 002°55'712.9
2017-Aug-25 20:00N 37°10' E 002°47'612.9
2017-Aug-25 19:30N 37°09' E 002°40'712.8
2017-Aug-25 18:57N 37°08' E 002°31'612.8
2017-Aug-25 18:30N 37°07' E 002°24'612.7
2017-Aug-25 18:00N 37°05' E 002°16'712.7
2017-Aug-25 17:29N 37°03' E 002°09'812.7
2017-Aug-25 16:50N 36°60' E 001°59'412.5
2017-Aug-25 16:30N 36°59' E 001°54'612.3
2017-Aug-25 16:00N 36°57' E 001°46'612.2
2017-Aug-25 15:30N 36°55' E 001°39'612.1
2017-Aug-25 15:00N 36°53' E 001°32'612.0
2017-Aug-25 14:30N 36°51' E 001°25'1512.7
2017-Aug-25 13:22N 36°46' E 001°08'513.2
2017-Aug-25 13:00N 36°45' E 001°03'713.2
2017-Aug-25 12:30N 36°42' E 000°55'713.2
2017-Aug-25 12:00N 36°40' E 000°47'713.5
2017-Aug-25 11:30N 36°37' E 000°39'813.5
2017-Aug-25 10:56N 36°35' E 000°30'3913.3
2017-Aug-25 07:59N 36°06' W 000°03'713.6
2017-Aug-25 07:30N 36°01' W 000°07'612.2
2017-Aug-25 06:58N 35°55' W 000°12'6 9.9
2017-Aug-25 06:24N 35°51' W 000°16'1 0.0
2017-Aug-24 06:10N 35°51' W 000°18'0 1.6
2017-Aug-24 06:00N 35°51' W 000°17'1 2.5
2017-Aug-24 05:29N 35°51' W 000°16'4 0.9
2017-Aug-24 01:23N 35°54' W 000°14'10 2.6
2017-Aug-23 21:28N 36°04' W 000°13'3 3.0
2017-Aug-23 20:37N 36°07' W 000°12'0 0.5
2017-Aug-23 20:10N 36°07' W 000°12'0 0.5
2017-Aug-23 19:57N 36°07' W 000°12'0 0.6
2017-Aug-23 19:30N 36°07' W 000°12'0 0.6
2017-Aug-23 19:00N 36°07' W 000°11'0 0.6
2017-Aug-23 18:30N 36°07' W 000°11'0 0.5
2017-Aug-23 18:00N 36°07' W 000°10'0 0.6
2017-Aug-23 17:30N 36°07' W 000°10'0 0.6
2017-Aug-23 17:00N 36°07' W 000°10'0 0.5
2017-Aug-23 16:29N 36°07' W 000°09'0 0.5
2017-Aug-23 16:00N 36°07' W 000°09'0 0.5
2017-Aug-23 15:30N 36°07' W 000°09'0 0.5
2017-Aug-23 15:00N 36°07' W 000°09'0 0.2
2017-Aug-23 14:00N 36°07' W 000°08'0 0.2
2017-Aug-23 13:30N 36°07' W 000°09'0 0.4
2017-Aug-23 12:39N 36°07' W 000°09'0 0.5
2017-Aug-23 12:27N 36°07' W 000°09'0 0.6
2017-Aug-23 11:57N 36°07' W 000°09'0 0.6
2017-Aug-23 11:27N 36°07' W 000°10'0 0.5
2017-Aug-23 11:00N 36°07' W 000°10'1 1.4
2017-Aug-23 10:25N 36°06' W 000°09'2 4.6
2017-Aug-23 09:59N 36°06' W 000°07'5 4.5
2017-Aug-23 08:48N 36°08' W 000°01'0 0.5
2017-Aug-23 08:30N 36°08' W 000°01'0 0.7
2017-Aug-23 07:56N 36°07' W 000°01'0 0.8
2017-Aug-23 07:30N 36°07' W 000°02'0 0.9
2017-Aug-23 07:00N 36°07' W 000°02'3 0.9
2017-Aug-23 03:42N 36°05' W 000°05'0 0.8
2017-Aug-23 03:21N 36°05' W 000°05'0 0.8
2017-Aug-23 03:00N 36°05' W 000°06'0 0.7
2017-Aug-23 02:30N 36°05' W 000°06'0 0.7
2017-Aug-23 02:00N 36°04' W 000°06'0 0.6
2017-Aug-23 01:30N 36°04' W 000°06'0 0.4
2017-Aug-23 01:00N 36°04' W 000°06'0 0.1
2017-Aug-23 00:30N 36°04' W 000°06'0 0.2
2017-Aug-22 23:58N 36°04' W 000°06'0 0.2
2017-Aug-22 23:26N 36°04' W 000°06'0 0.2
2017-Aug-22 23:00N 36°04' W 000°06'0 0.4
2017-Aug-22 22:30N 36°04' W 000°06'0 0.9
2017-Aug-22 22:00N 36°05' W 000°07'2 4.4
2017-Aug-22 21:30N 36°05' W 000°09'611.3
2017-Aug-22 21:00N 36°07' W 000°16'3 5.2
2017-Aug-22 20:30N 36°07' W 000°19'0 0.6
2017-Aug-22 19:57N 36°07' W 000°18'0 0.6
2017-Aug-22 19:29N 36°07' W 000°18'0 0.7
2017-Aug-22 18:59N 36°07' W 000°18'0 0.9
2017-Aug-22 18:28N 36°07' W 000°17'1 1.2
2017-Aug-22 18:00N 36°07' W 000°16'1 1.2
2017-Aug-22 17:30N 36°07' W 000°16'1 1.1
2017-Aug-22 17:00N 36°07' W 000°15'1 1.1
2017-Aug-22 16:30N 36°07' W 000°14'1 1.2
2017-Aug-22 16:00N 36°06' W 000°14'0 0.8
2017-Aug-22 15:28N 36°06' W 000°13'0 0.8
2017-Aug-22 15:00N 36°06' W 000°13'0 0.8
2017-Aug-22 14:30N 36°06' W 000°12'0 0.6
2017-Aug-22 13:56N 36°06' W 000°12'0 0.5
2017-Aug-22 13:29N 36°06' W 000°11'0 0.6
2017-Aug-22 12:44N 36°06' W 000°11'0 0.7
2017-Aug-22 12:28N 36°06' W 000°11'0 0.6
2017-Aug-22 11:48N 36°06' W 000°10'0 0.4
2017-Aug-22 11:28N 36°06' W 000°10'0 0.2
2017-Aug-22 11:00N 36°06' W 000°10'1 0.5
2017-Aug-22 09:07N 36°05' W 000°09'3 1.2
2017-Aug-22 06:47N 36°08' W 000°07'0 0.0
2017-Aug-22 06:21N 36°08' W 000°07'0 0.1
2017-Aug-22 05:57N 36°08' W 000°07'0 0.0
2017-Aug-22 04:53N 36°08' W 000°07'0 0.2
2017-Aug-22 02:56N 36°07' W 000°07'1 0.6
2017-Aug-22 01:42N 36°07' W 000°06'0 1.4
2017-Aug-22 01:28N 36°07' W 000°06'1 2.9
2017-Aug-22 01:00N 36°05' W 000°06'3 5.6
2017-Aug-22 00:27N 36°02' W 000°07'4 6.4
2017-Aug-21 23:54N 35°59' W 000°08'1 1.2
2017-Aug-21 23:16N 35°60' W 000°08'4 1.5
2017-Aug-21 20:27N 36°03' W 000°05'1 1.8
2017-Aug-21 19:54N 36°04' W 000°05'1 1.9
2017-Aug-21 19:30N 36°05' W 000°05'2 3.6
2017-Aug-21 18:58N 36°05' W 000°07'3 5.1
2017-Aug-21 18:28N 36°05' W 000°10'3 5.3
2017-Aug-21 17:59N 36°05' W 000°13'3 5.8
2017-Aug-21 17:30N 36°05' W 000°17'3 5.4
2017-Aug-21 17:00N 36°05' W 000°20'1 2.1
2017-Aug-21 16:26N 36°04' W 000°19'1 1.7
2017-Aug-21 15:55N 36°04' W 000°18'6 1.2
2017-Aug-21 10:57N 36°04' W 000°11'0 0.6
2017-Aug-21 10:28N 36°04' W 000°10'1 0.6
2017-Aug-21 09:33N 36°04' W 000°09'0 0.9
2017-Aug-21 09:16N 36°04' W 000°09'4 0.9
2017-Aug-21 04:36N 36°06' W 000°05'1 3.4
2017-Aug-21 04:20N 36°06' W 000°06'4 0.9
2017-Aug-21 00:05N 36°05' W 000°10'0 1.4
2017-Aug-20 23:55N 36°05' W 000°10'2 0.8
2017-Aug-20 20:59N 36°06' W 000°13'1 1.6
2017-Aug-20 20:30N 36°06' W 000°14'1 1.8
2017-Aug-20 19:59N 36°05' W 000°15'24011.1
2017-Aug-19 22:17N 35°59' W 005°12'412.9
2017-Aug-19 22:01N 35°59' W 005°16'612.8
2017-Aug-19 21:30N 35°58' W 005°24'1211.8
2017-Aug-19 20:29N 35°54' W 005°38'5 9.4
2017-Aug-19 20:00N 35°54' W 005°44'6 9.4
2017-Aug-19 19:21N 35°53' W 005°51'510.2
2017-Aug-19 18:52N 35°53' W 005°57'7211.2
2017-Aug-19 12:25N 35°55' W 007°26'1311.2
2017-Aug-19 11:15N 35°55' W 007°42'411.5
2017-Aug-19 10:56N 35°55' W 007°47'511.7
2017-Aug-19 10:30N 35°55' W 007°53'2311.9
2017-Aug-19 08:36N 35°56' W 008°21'112.0
2017-Aug-19 08:29N 35°56' W 008°23'612.0
2017-Aug-19 08:00N 35°56' W 008°30'611.8
2017-Aug-19 07:30N 35°56' W 008°37'611.8
2017-Aug-19 06:59N 35°57' W 008°44'1311.6
2017-Aug-19 05:53N 35°57' W 009°00'4111.3
2017-Aug-19 02:12N 35°59' W 009°51'511.3
2017-Aug-19 01:44N 35°59' W 009°58'1111.3
2017-Aug-19 00:47N 35°59' W 010°11'711.6
2017-Aug-19 00:13N 35°59' W 010°19'211.4
2017-Aug-19 00:00N 35°59' W 010°22'611.1
2017-Aug-18 23:30N 35°60' W 010°29'510.8
2017-Aug-18 23:00N 35°60' W 010°36'1811.2
2017-Aug-18 21:26N 36°00' W 010°58'611.2
2017-Aug-18 20:55N 36°01' W 011°05'611.2
2017-Aug-18 20:23N 36°01' W 011°12'611.4
2017-Aug-18 19:50N 36°01' W 011°20'511.6
2017-Aug-18 19:27N 36°02' W 011°25'511.7
2017-Aug-18 19:00N 36°02' W 011°32'1511.7
2017-Aug-18 17:43N 36°02' W 011°51'411.7
2017-Aug-18 17:22N 36°02' W 011°55'411.6
2017-Aug-18 17:00N 36°02' W 012°01'611.4
2017-Aug-18 16:27N 36°03' W 012°08'911.3
2017-Aug-18 15:39N 36°03' W 012°20'211.6
2017-Aug-18 15:27N 36°03' W 012°22'611.8
2017-Aug-18 14:58N 36°03' W 012°30'712.0
2017-Aug-18 14:25N 36°03' W 012°38'1112.0
2017-Aug-18 13:29N 36°04' W 012°52'2012.0
2017-Aug-18 11:48N 36°05' W 013°17'2910.8
2017-Aug-18 09:07N 36°05' W 013°52'1 6.1
2017-Aug-18 09:00N 36°05' W 013°53'3 5.6
2017-Aug-18 08:30N 36°06' W 013°57'  

Dump ship's entire track history